Time;durP1;ratioP1;P1;durP2;ratioP2;P2;SDS_P1;SDS_P2;PMS_P1;PMS_P2;Temp;Humidity;BMP_temperature;BMP_pressure;BME280_temperature;BME280_humidity;BME280_pressure;Samples;Min_cycle;Max_cycle;Signal;HPM_P1;HPM_P2
2023/03/01 00:00:22;;;;;;;8.90;8.20;;;;;;;-0.43;84.09;99517.44;4159534;28;20209;-52
2023/03/01 00:02:24;;;;;;;8.50;7.77;;;;;;;-0.41;83.87;99518.16;4172373;28;20953;-52
2023/03/01 00:04:27;;;;;;;9.07;8.27;;;;;;;-0.39;84.14;99519.69;4159703;28;20717;-51
2023/03/01 00:06:29;;;;;;;8.77;8.07;;;;;;;-0.39;83.95;99518.81;4158579;28;20303;-51
2023/03/01 00:08:32;;;;;;;8.80;8.03;;;;;;;-0.44;84.22;99526.50;4176520;28;20240;-51
2023/03/01 00:10:34;;;;;;;8.60;7.90;;;;;;;-0.43;84.26;99520.13;4175307;28;20246;-51
2023/03/01 00:12:36;;;;;;;9.20;8.27;;;;;;;-0.50;84.57;99514.56;4159051;28;20258;-51
2023/03/01 00:14:38;;;;;;;10.93;10.07;;;;;;;-0.43;84.47;99517.44;4174261;28;20247;-51
2023/03/01 00:16:41;;;;;;;10.50;9.70;;;;;;;-0.46;84.23;99513.25;4161132;28;20232;-51
2023/03/01 00:18:43;;;;;;;10.67;9.67;;;;;;;-0.48;84.52;99512.53;4175036;28;20259;-51
2023/03/01 00:20:52;;;;;;;9.67;8.87;;;;;;;-0.44;84.47;99518.44;4143192;28;20206;-51
2023/03/01 00:22:54;;;;;;;9.57;8.67;;;;;;;-0.47;84.77;99516.09;4175667;28;20203;-52
2023/03/01 00:24:55;;;;;;;10.57;8.30;;;;;;;-0.38;84.16;99510.63;4140455;28;20654;-51
2023/03/01 00:26:57;;;;;;;9.23;8.53;;;;;;;-0.38;84.25;99499.88;4175085;28;20299;-51
2023/03/01 00:28:59;;;;;;;10.23;9.23;;;;;;;-0.44;84.63;99499.63;4143215;28;20232;-51
2023/03/01 00:31:09;;;;;;;11.70;10.70;;;;;;;-0.42;84.35;99497.66;4159224;28;20196;-51
2023/03/01 00:33:10;;;;;;;10.13;9.27;;;;;;;-0.40;84.57;99506.41;4174424;28;20192;-52
2023/03/01 00:35:12;;;;;;;10.77;9.90;;;;;;;-0.42;84.48;99497.66;4158962;28;20220;-52
2023/03/01 00:37:14;;;;;;;10.77;9.73;;;;;;;-0.42;84.86;99503.03;4160637;28;20307;-50
2023/03/01 00:39:18;;;;;;;10.40;9.60;;;;;;;-0.41;84.78;99499.34;4159451;28;20243;-52
2023/03/01 00:41:22;;;;;;;9.77;8.97;;;;;;;-0.47;85.20;99494.59;4159685;28;20291;-51
2023/03/01 00:43:24;;;;;;;10.27;9.37;;;;;;;-0.56;85.93;99498.22;4159875;28;20694;-53
2023/03/01 00:45:26;;;;;;;16.90;9.80;;;;;;;-0.50;85.30;99493.06;4159335;28;21114;-52
2023/03/01 00:47:29;;;;;;;10.90;10.03;;;;;;;-0.51;85.46;99501.25;4141437;28;20265;-52
2023/03/01 00:49:30;;;;;;;9.37;8.67;;;;;;;-0.46;85.18;99504.31;4158299;28;20213;-51
2023/03/01 00:51:32;;;;;;;9.57;8.87;;;;;;;-0.51;85.43;99512.00;4173692;28;20718;-50
2023/03/01 00:53:35;;;;;;;10.37;9.37;;;;;;;-0.42;85.11;99508.41;4157079;28;20225;-51
2023/03/01 00:55:37;;;;;;;11.13;10.13;;;;;;;-0.55;85.63;99519.53;4157845;28;20204;-52
2023/03/01 00:57:39;;;;;;;11.00;8.87;;;;;;;-0.40;84.85;99511.78;4173130;28;20354;-52
2023/03/01 00:59:40;;;;;;;8.37;7.73;;;;;;;-0.49;85.29;99512.72;4158118;28;20259;-52
2023/03/01 01:01:42;;;;;;;9.60;8.80;;;;;;;-0.43;85.27;99520.13;4175633;28;20199;-51
2023/03/01 01:04:02;;;;;;;9.90;9.10;;;;;;;-0.47;85.50;99521.47;4176979;28;20257;-52
2023/03/01 01:06:09;;;;;;;10.63;9.70;;;;;;;-0.42;85.65;99527.22;4159786;28;20205;-52
2023/03/01 01:08:11;;;;;;;11.93;10.40;;;;;;;-0.48;85.50;99522.47;4162909;28;20232;-52
2023/03/01 01:10:16;;;;;;;10.93;9.00;;;;;;;-0.40;85.25;99514.47;4142615;28;20300;-52
2023/03/01 01:12:18;;;;;;;10.40;9.47;;;;;;;-0.40;84.54;99519.84;4160119;28;20212;-51
2023/03/01 01:14:20;;;;;;;9.43;8.63;;;;;;;-0.32;84.45;99515.38;4172937;28;20257;-51
2023/03/01 01:16:23;;;;;;;10.00;9.10;;;;;;;-0.60;85.85;99512.97;4173035;28;20216;-52
2023/03/01 01:18:25;;;;;;;10.67;9.63;;;;;;;-0.51;85.62;99509.31;4152478;28;20340;-52
2023/03/01 01:20:27;;;;;;;9.93;9.13;;;;;;;-0.61;85.67;99498.66;4174793;28;20219;-51
2023/03/01 01:22:29;;;;;;;9.53;8.73;;;;;;;-0.59;85.71;99490.44;4159621;28;20201;-52
2023/03/01 01:24:31;;;;;;;10.53;9.70;;;;;;;-0.73;86.38;99494.56;4157881;28;20244;-51
2023/03/01 01:26:33;;;;;;;11.30;10.50;;;;;;;-0.78;86.64;99485.25;4154941;28;21014;-52
2023/03/01 01:28:35;;;;;;;8.97;8.27;;;;;;;-0.66;86.77;99481.31;4174154;28;20242;-52
2023/03/01 01:30:37;;;;;;;9.47;8.57;;;;;;;-0.61;86.64;99470.97;4155563;28;20742;-52
2023/03/01 01:32:39;;;;;;;9.67;8.93;;;;;;;-0.67;86.72;99477.78;4172730;28;20242;-52
2023/03/01 01:34:41;;;;;;;11.03;10.13;;;;;;;-0.57;86.35;99477.69;4157391;28;20215;-52
2023/03/01 01:36:43;;;;;;;11.70;10.37;;;;;;;-0.53;85.90;99468.34;4140035;28;20309;-53
2023/03/01 01:38:45;;;;;;;8.47;7.67;;;;;;;-0.51;85.58;99479.75;4174239;28;20324;-51
2023/03/01 01:40:48;;;;;;;10.17;9.33;;;;;;;-0.58;85.65;99474.19;4157688;28;20422;-52
2023/03/01 01:42:50;;;;;;;11.00;10.10;;;;;;;-0.62;85.97;99480.03;4157232;28;20255;-52
2023/03/01 01:45:29;;;;;;;10.10;9.30;;;;;;;-0.77;87.10;99470.81;4172135;28;20298;-51
2023/03/01 01:47:31;;;;;;;12.13;11.03;;;;;;;-0.86;88.07;99474.44;4171795;28;20239;-51
2023/03/01 01:49:54;;;;;;;12.23;11.10;;;;;;;-0.76;87.93;99464.44;4173505;28;20235;-51
2023/03/01 01:52:10;;;;;;;11.37;10.37;;;;;;;-0.86;88.51;99469.06;4167576;28;20717;-51
2023/03/01 01:54:16;;;;;;;11.53;10.53;;;;;;;-0.84;88.36;99464.38;4157638;28;20212;-51
2023/03/01 01:56:18;;;;;;;11.97;10.97;;;;;;;-0.94;89.04;99458.28;4174454;28;20262;-51
2023/03/01 01:58:21;;;;;;;14.33;11.27;;;;;;;-1.00;89.38;99453.50;4172971;28;20259;-52
2023/03/01 02:00:26;;;;;;;12.27;11.27;;;;;;;-0.94;89.03;99442.97;4138253;28;20220;-52
2023/03/01 02:02:28;;;;;;;12.90;11.80;;;;;;;-0.84;88.61;99445.56;4154740;28;20307;-51
2023/03/01 02:04:31;;;;;;;11.87;10.87;;;;;;;-0.85;88.64;99441.22;4156081;28;20212;-51
2023/03/01 02:06:37;;;;;;;12.00;11.07;;;;;;;-0.88;88.97;99441.53;4153033;28;20279;-51
2023/03/01 02:08:41;;;;;;;11.40;10.40;;;;;;;-0.89;89.08;99423.75;4154102;28;20240;-51
2023/03/01 02:10:43;;;;;;;11.40;10.40;;;;;;;-0.96;89.62;99438.75;4171060;28;20761;-51
2023/03/01 02:12:45;;;;;;;11.57;10.63;;;;;;;-0.94;89.25;99426.03;4140497;28;20252;-51
2023/03/01 02:14:47;;;;;;;14.47;11.60;;;;;;;-0.91;89.33;99431.94;4158758;28;20836;-52
2023/03/01 02:16:49;;;;;;;11.23;10.30;;;;;;;-0.79;89.18;99429.84;4158880;28;20325;-51
2023/03/01 02:18:51;;;;;;;13.60;12.43;;;;;;;-0.82;88.92;99424.81;4174473;28;20235;-52
2023/03/01 02:21:17;;;;;;;12.20;11.03;;;;;;;-0.79;88.55;99422.66;4156246;28;20239;-51
2023/03/01 02:23:18;;;;;;;10.90;10.10;;;;;;;-0.83;88.74;99412.34;4153845;28;20243;-51
2023/03/01 02:25:28;;;;;;;11.80;10.90;;;;;;;-0.75;88.90;99409.75;4169863;28;20227;-52
2023/03/01 02:27:38;;;;;;;11.97;10.87;;;;;;;-0.92;89.27;99408.78;4153496;28;20204;-53
2023/03/01 02:29:43;;;;;;;12.07;11.07;;;;;;;-0.87;89.13;99413.66;4152157;28;20262;-52
2023/03/01 02:31:45;;;;;;;12.60;11.50;;;;;;;-1.02;90.17;99412.56;4139155;28;20210;-51
2023/03/01 02:33:48;;;;;;;11.53;10.63;;;;;;;-1.12;90.43;99417.16;4174121;28;20324;-51
2023/03/01 02:35:50;;;;;;;13.47;12.10;;;;;;;-1.14;90.63;99408.41;4171687;28;21114;-51
2023/03/01 02:37:51;;;;;;;11.60;10.67;;;;;;;-1.09;90.30;99406.13;4142290;28;20243;-52
2023/03/01 02:39:58;;;;;;;12.23;11.10;;;;;;;-1.07;90.02;99409.47;4174847;28;20296;-51
2023/03/01 02:42:01;;;;;;;12.80;11.67;;;;;;;-1.04;90.46;99404.66;4156386;28;20203;-52
2023/03/01 02:44:04;;;;;;;12.53;11.43;;;;;;;-0.96;89.61;99406.53;4174795;28;20757;-53
2023/03/01 02:46:13;;;;;;;12.73;11.70;;;;;;;-1.07;90.48;99404.13;4172324;28;20204;-52
2023/03/01 02:48:14;;;;;;;13.47;12.20;;;;;;;-0.99;90.38;99405.03;4175119;28;20666;-52
2023/03/01 02:50:25;;;;;;;12.27;11.27;;;;;;;-1.07;90.03;99393.38;4162948;28;20287;-51
2023/03/01 02:52:47;;;;;;;13.67;12.53;;;;;;;-1.01;90.18;99403.50;4159667;28;20252;-52
2023/03/01 02:54:57;;;;;;;11.13;10.23;;;;;;;-1.03;90.49;99394.72;4158041;28;20826;-52
2023/03/01 02:56:59;;;;;;;12.03;10.93;;;;;;;-1.01;90.10;99400.81;4158980;28;20658;-51
2023/03/01 02:59:02;;;;;;;11.40;10.23;;;;;;;-1.04;90.04;99399.28;4161024;28;20247;-51
2023/03/01 03:01:04;;;;;;;12.80;11.20;;;;;;;-1.03;90.13;99394.72;4143070;28;20205;-52
2023/03/01 03:03:07;;;;;;;13.63;11.03;;;;;;;-0.90;89.62;99395.16;4160255;28;20200;-53
2023/03/01 03:05:14;;;;;;;13.23;10.97;;;;;;;-0.95;89.39;99392.13;4177787;28;20250;-52
2023/03/01 03:07:16;;;;;;;12.33;11.33;;;;;;;-0.90;89.21;99379.06;4176692;28;20257;-51
2023/03/01 03:09:18;;;;;;;13.30;12.10;;;;;;;-0.92;88.97;99375.69;4162395;28;20715;-51
2023/03/01 03:11:20;;;;;;;10.93;9.93;;;;;;;-0.93;89.03;99374.00;4157581;28;20209;-51
2023/03/01 03:13:22;;;;;;;12.00;10.97;;;;;;;-0.85;88.74;99377.59;4176610;28;20771;-52
2023/03/01 03:15:25;;;;;;;11.13;10.13;;;;;;;-0.88;88.69;99369.84;4163150;28;20378;-51
2023/03/01 03:17:27;;;;;;;12.63;11.53;;;;;;;-0.91;88.53;99367.47;4157943;28;20336;-52
2023/03/01 03:19:29;;;;;;;13.80;12.50;;;;;;;-0.91;88.53;99362.13;4159090;28;20299;-52
2023/03/01 03:21:34;;;;;;;12.17;11.03;;;;;;;-0.94;88.54;99359.72;4161285;28;20239;-52
2023/03/01 03:23:36;;;;;;;11.73;10.80;;;;;;;-0.94;88.31;99358.91;4159082;28;20254;-52
2023/03/01 03:25:37;;;;;;;10.77;9.77;;;;;;;-0.89;88.72;99364.66;4175017;28;20262;-51
2023/03/01 03:27:41;;;;;;;11.57;10.57;;;;;;;-0.85;88.76;99355.25;4174849;28;20262;-53
2023/03/01 03:29:42;;;;;;;10.40;9.40;;;;;;;-0.95;88.53;99360.72;4160500;28;20232;-53
2023/03/01 03:31:44;;;;;;;11.40;10.43;;;;;;;-0.91;88.50;99358.56;4156187;28;20237;-52
2023/03/01 03:33:46;;;;;;;12.93;11.63;;;;;;;-0.97;88.76;99351.13;4176560;28;20224;-51
2023/03/01 03:35:49;;;;;;;11.20;10.30;;;;;;;-0.92;88.73;99355.06;4160384;28;20287;-52
2023/03/01 03:38:06;;;;;;;12.23;11.13;;;;;;;-0.90;88.62;99357.56;4157499;28;20228;-53
2023/03/01 03:40:15;;;;;;;11.50;10.50;;;;;;;-0.92;88.67;99349.69;4159781;28;20201;-53
2023/03/01 03:42:17;;;;;;;11.60;10.10;;;;;;;-0.95;88.53;99350.00;4175337;28;20318;-51
2023/03/01 03:44:19;;;;;;;13.07;11.17;;;;;;;-1.01;88.89;99339.03;4161376;28;20295;-52
2023/03/01 03:46:21;;;;;;;12.80;11.63;;;;;;;-0.91;88.69;99348.69;4160462;28;20323;-52
2023/03/01 03:48:23;;;;;;;10.97;9.73;;;;;;;-0.90;88.60;99342.31;4176621;28;20306;-52
2023/03/01 03:50:24;;;;;;;12.77;11.67;;;;;;;-0.96;89.11;99340.25;4164059;28;20299;-52
2023/03/01 03:52:26;;;;;;;12.90;11.67;;;;;;;-1.03;88.96;99346.41;4157765;28;20659;-52
2023/03/01 03:54:28;;;;;;;12.03;10.90;;;;;;;-1.06;89.68;99338.66;4157630;28;20204;-52
2023/03/01 03:56:30;;;;;;;12.97;11.83;;;;;;;-1.26;90.33;99340.72;4175439;28;20248;-52
2023/03/01 03:58:32;;;;;;;11.87;10.87;;;;;;;-1.10;89.91;99339.97;4158526;28;20229;-53
2023/03/01 04:00:42;;;;;;;11.57;10.47;;;;;;;-1.14;89.95;99338.63;4176707;28;20210;-52
2023/03/01 04:02:44;;;;;;;12.30;11.30;;;;;;;-1.08;89.69;99338.00;4138385;28;20210;-51
2023/03/01 04:04:46;;;;;;;12.77;11.33;;;;;;;-1.14;90.01;99343.97;4159724;28;20262;-52
2023/03/01 04:06:48;;;;;;;11.90;10.73;;;;;;;-1.15;89.68;99342.31;4158919;28;20319;-52
2023/03/01 04:08:50;;;;;;;13.53;12.37;;;;;;;-1.05;89.80;99337.66;4175866;28;20228;-51
2023/03/01 04:10:57;;;;;;;12.03;11.00;;;;;;;-1.08;89.50;99343.34;4174495;28;20208;-52
2023/03/01 04:12:59;;;;;;;11.90;10.83;;;;;;;-1.05;89.34;99343.88;4174320;28;20244;-52
2023/03/01 04:15:12;;;;;;;13.03;11.93;;;;;;;-1.10;89.34;99334.59;4159319;28;20315;-53
2023/03/01 04:17:14;;;;;;;11.47;10.33;;;;;;;-1.09;89.49;99337.13;4159932;28;20686;-51
2023/03/01 04:19:16;;;;;;;15.23;12.00;;;;;;;-1.16;89.17;99337.91;4160406;28;20299;-52
2023/03/01 04:21:20;;;;;;;12.93;11.83;;;;;;;-1.26;89.54;99334.50;4175142;28;20223;-51
2023/03/01 04:23:21;;;;;;;13.50;12.17;;;;;;;-1.33;89.73;99336.13;4160282;28;20200;-52
2023/03/01 04:25:23;;;;;;;12.60;11.37;;;;;;;-1.31;90.02;99331.41;4163336;28;20730;-52
2023/03/01 04:27:25;;;;;;;13.47;11.17;;;;;;;-1.39;89.85;99336.72;4159613;28;20244;-51
2023/03/01 04:29:27;;;;;;;11.90;10.90;;;;;;;-1.32;90.29;99330.59;4159361;28;20244;-52
2023/03/01 04:31:29;;;;;;;11.80;10.80;;;;;;;-1.36;89.97;99328.34;4156413;28;20232;-52
2023/03/01 04:33:30;;;;;;;14.00;12.70;;;;;;;-1.44;90.06;99326.47;4158809;28;20400;-52
2023/03/01 04:35:32;;;;;;;12.03;10.93;;;;;;;-1.41;90.27;99328.00;4138448;28;20210;-52
2023/03/01 04:37:34;;;;;;;13.83;12.60;;;;;;;-1.34;90.14;99327.19;4158654;28;20213;-52
2023/03/01 04:39:45;;;;;;;12.83;11.57;;;;;;;-1.41;90.31;99328.00;4154428;28;20316;-52
2023/03/01 04:41:47;;;;;;;13.13;11.93;;;;;;;-1.38;90.08;99330.34;4158389;28;20212;-51
2023/03/01 04:43:49;;;;;;;14.13;12.93;;;;;;;-1.25;90.38;99336.16;4159374;28;20220;-52
2023/03/01 04:45:50;;;;;;;12.83;11.73;;;;;;;-1.32;90.69;99335.09;4153984;28;20671;-54
2023/03/01 04:47:52;;;;;;;16.67;12.73;;;;;;;-1.42;90.64;99334.38;4158666;28;20228;-52
2023/03/01 04:49:54;;;;;;;14.30;12.57;;;;;;;-1.40;90.84;99343.09;4159358;28;20212;-51
2023/03/01 04:51:58;;;;;;;13.93;12.43;;;;;;;-1.49;90.76;99336.81;4141278;28;20223;-52
2023/03/01 04:54:00;;;;;;;13.50;12.33;;;;;;;-1.44;91.17;99330.97;4167640;28;20223;-51
2023/03/01 04:56:02;;;;;;;13.07;11.97;;;;;;;-1.35;90.82;99336.25;4153055;28;20204;-52
2023/03/01 04:58:04;;;;;;;13.33;12.13;;;;;;;-1.44;90.72;99342.56;4173593;28;20223;-52
2023/03/01 05:00:20;;;;;;;13.80;12.43;;;;;;;-1.54;91.58;99341.78;4157914;28;20885;-52
2023/03/01 05:02:22;;;;;;;13.13;12.03;;;;;;;-1.59;91.41;99340.56;4174561;28;20195;-52
2023/03/01 05:04:24;;;;;;;13.97;12.87;;;;;;;-1.65;91.41;99344.72;4156879;28;20209;-52
2023/03/01 05:06:26;;;;;;;14.70;13.37;;;;;;;-1.59;91.28;99337.91;4174062;28;20643;-52
2023/03/01 05:08:28;;;;;;;12.87;11.73;;;;;;;-1.40;90.78;99335.88;4175438;28;20258;-51
2023/03/01 05:10:31;;;;;;;13.77;12.57;;;;;;;-1.48;90.48;99345.72;4157005;28;20241;-52
2023/03/01 05:12:33;;;;;;;13.97;12.57;;;;;;;-1.50;91.09;99336.97;4158342;28;20287;-51
2023/03/01 05:14:35;;;;;;;14.93;12.63;;;;;;;-1.46;90.81;99344.56;4158833;28;20598;-51
2023/03/01 05:16:37;;;;;;;15.40;14.07;;;;;;;-1.63;90.89;99336.50;4158623;28;20662;-53
2023/03/01 05:18:40;;;;;;;12.83;11.63;;;;;;;-1.71;91.07;99344.47;4156490;28;20232;-51
2023/03/01 05:20:41;;;;;;;13.73;12.33;;;;;;;-1.76;91.20;99334.22;4151669;28;20655;-51
2023/03/01 05:22:43;;;;;;;14.93;13.77;;;;;;;-1.82;91.41;99339.38;4157136;28;20641;-51
2023/03/01 05:24:46;;;;;;;14.27;12.97;;;;;;;-1.88;91.90;99331.91;4157487;28;20582;-52
2023/03/01 05:26:48;;;;;;;12.57;11.37;;;;;;;-1.78;92.12;99333.53;4157249;28;20236;-52
2023/03/01 05:28:49;;;;;;;14.17;12.77;;;;;;;-1.81;92.01;99333.00;4172604;28;20227;-52
2023/03/01 05:30:51;;;;;;;13.07;11.83;;;;;;;-1.78;92.25;99327.31;4174901;28;20204;-51
2023/03/01 05:32:55;;;;;;;15.03;13.53;;;;;;;-1.71;92.01;99323.03;4159562;28;20611;-52
2023/03/01 05:34:57;;;;;;;13.40;12.23;;;;;;;-1.76;92.06;99330.69;4156912;28;20279;-51
2023/03/01 05:36:59;;;;;;;14.60;13.33;;;;;;;-1.74;92.17;99336.75;4156256;28;20662;-53
2023/03/01 05:39:01;;;;;;;14.40;12.80;;;;;;;-1.79;92.22;99321.13;4172433;28;20307;-51
2023/03/01 05:41:03;;;;;;;15.03;12.87;;;;;;;-1.76;92.89;99322.63;4156749;28;20287;-51
2023/03/01 05:43:05;;;;;;;15.57;13.70;;;;;;;-1.75;92.59;99327.84;4158388;28;20201;-51
2023/03/01 05:45:09;;;;;;;14.93;13.73;;;;;;;-1.69;92.22;99326.41;4158267;28;20209;-50
2023/03/01 05:47:11;;;;;;;14.40;12.90;;;;;;;-1.71;92.61;99329.25;4155125;28;20609;-51
2023/03/01 05:49:13;;;;;;;13.90;12.77;;;;;;;-1.66;92.14;99323.41;4156504;28;20315;-51
2023/03/01 05:51:15;;;;;;;14.30;12.90;;;;;;;-1.62;92.29;99317.56;4156318;28;20212;-51
2023/03/01 05:53:21;;;;;;;14.40;12.93;;;;;;;-1.68;92.19;99322.72;4160543;28;20690;-51
2023/03/01 05:55:23;;;;;;;14.77;13.57;;;;;;;-1.66;92.37;99331.47;4173105;28;20858;-51
2023/03/01 05:57:25;;;;;;;12.53;11.53;;;;;;;-1.70;92.34;99330.91;4156411;28;20204;-51
2023/03/01 05:59:27;;;;;;;13.00;11.80;;;;;;;-1.72;92.98;99332.06;4140315;28;20296;-52
2023/03/01 06:01:29;;;;;;;14.07;12.80;;;;;;;-1.84;94.13;99319.88;4160872;28;20295;-51
2023/03/01 06:03:30;;;;;;;13.90;12.47;;;;;;;-1.80;93.90;99329.31;4173578;28;20220;-51
2023/03/01 06:05:32;;;;;;;15.13;13.63;;;;;;;-1.78;94.30;99328.16;4156943;28;20201;-51
2023/03/01 06:07:34;;;;;;;12.97;11.93;;;;;;;-1.80;94.99;99327.47;4157546;28;20216;-50
2023/03/01 06:09:36;;;;;;;15.13;13.73;;;;;;;-1.71;95.30;99323.03;4157497;28;20208;-52
2023/03/01 06:11:38;;;;;;;14.77;13.50;;;;;;;-1.64;94.63;99329.47;4157166;28;20275;-51
2023/03/01 06:13:44;;;;;;;15.57;14.17;;;;;;;-1.63;95.13;99325.78;4139586;28;20233;-50
2023/03/01 06:15:45;;;;;;;14.73;13.30;;;;;;;-1.59;95.34;99321.78;4158137;28;20217;-49
2023/03/01 06:17:47;;;;;;;15.93;14.47;;;;;;;-1.52;95.45;99321.03;4173646;28;20228;-50
2023/03/01 06:19:49;;;;;;;15.87;14.37;;;;;;;-1.49;95.22;99314.53;4169867;28;20211;-49
2023/03/01 06:21:50;;;;;;;17.10;15.37;;;;;;;-1.55;96.09;99309.78;4157375;28;20671;-51
2023/03/01 06:23:52;;;;;;;15.10;13.13;;;;;;;-1.56;96.02;99311.59;4157514;28;20233;-50
2023/03/01 06:25:54;;;;;;;16.43;14.93;;;;;;;-1.52;95.79;99320.19;4163542;28;20258;-50
2023/03/01 06:27:56;;;;;;;15.77;14.37;;;;;;;-1.44;95.60;99309.50;4171003;28;20311;-51
2023/03/01 06:29:57;;;;;;;17.87;14.70;;;;;;;-1.39;95.15;99312.56;4165323;28;20726;-50
2023/03/01 06:31:59;;;;;;;19.00;15.93;;;;;;;-1.44;95.87;99309.50;4178780;28;20240;-50
2023/03/01 06:34:01;;;;;;;17.90;16.17;;;;;;;-1.41;96.13;99311.91;4179032;28;20228;-50
2023/03/01 06:36:03;;;;;;;16.57;14.97;;;;;;;-1.36;95.49;99309.56;4160224;28;20247;-50
2023/03/01 06:38:05;;;;;;;17.47;14.77;;;;;;;-1.29;95.23;99310.66;4155932;28;20224;-50
2023/03/01 06:40:08;;;;;;;16.77;15.27;;;;;;;-1.32;95.40;99306.44;4178180;28;20208;-49
2023/03/01 06:42:09;;;;;;;16.77;15.27;;;;;;;-1.29;95.25;99303.44;4156840;28;20201;-52
2023/03/01 06:44:11;;;;;;;19.00;17.40;;;;;;;-1.22;95.09;99304.50;4169465;28;20631;-51
2023/03/01 06:46:13;;;;;;;16.47;14.87;;;;;;;-1.25;95.43;99314.69;4174763;28;20235;-51
2023/03/01 06:48:15;;;;;;;16.37;14.73;;;;;;;-1.23;95.29;99304.63;4161996;28;20327;-49
2023/03/01 06:50:17;;;;;;;15.40;14.20;;;;;;;-1.17;95.08;99306.69;4158613;28;20237;-50
2023/03/01 06:52:19;;;;;;;17.63;15.50;;;;;;;-1.13;95.08;99302.72;4176106;28;20212;-50
2023/03/01 06:54:22;;;;;;;17.03;15.50;;;;;;;-1.05;95.05;99308.13;4176419;28;20311;-51
2023/03/01 06:56:24;;;;;;;17.00;15.23;;;;;;;-1.05;94.60;99310.81;4157029;28;20216;-50
2023/03/01 06:58:26;;;;;;;17.73;16.00;;;;;;;-0.99;94.27;99300.31;4177495;28;20267;-51
2023/03/01 07:00:28;;;;;;;16.40;14.87;;;;;;;-0.95;93.93;99300.81;4174935;28;20629;-50
2023/03/01 07:02:30;;;;;;;18.57;16.70;;;;;;;-0.87;94.22;99303.56;4156387;28;20220;-51
2023/03/01 07:04:32;;;;;;;16.90;15.33;;;;;;;-0.88;93.77;99307.25;4160985;28;20639;-51
2023/03/01 07:06:33;;;;;;;16.57;14.77;;;;;;;-0.83;93.54;99304.91;4160815;28;20293;-52
2023/03/01 07:08:35;;;;;;;18.50;16.60;;;;;;;-0.83;93.49;99302.22;4175766;28;20252;-51
2023/03/01 07:10:39;;;;;;;17.87;16.17;;;;;;;-0.73;93.38;99300.28;4160924;28;20215;-51
2023/03/01 07:12:41;;;;;;;16.40;14.67;;;;;;;-0.76;93.18;99301.44;4161315;28;20536;-51
2023/03/01 07:14:44;;;;;;;17.17;14.73;;;;;;;-0.65;92.75;99297.63;4157789;28;20268;-53
2023/03/01 07:16:46;;;;;;;16.43;14.90;;;;;;;-0.58;92.55;99294.13;4174575;28;20222;-52
2023/03/01 07:18:47;;;;;;;14.93;13.63;;;;;;;-0.56;91.87;99294.81;4158762;28;20267;-51
2023/03/01 07:20:49;;;;;;;18.90;17.03;;;;;;;-0.52;92.14;99300.69;4161870;28;20213;-51
2023/03/01 07:22:52;;;;;;;18.63;15.03;;;;;;;-0.55;91.72;99292.97;4162145;28;20296;-51
2023/03/01 07:24:53;;;;;;;16.83;15.23;;;;;;;-0.48;91.22;99289.47;4177508;28;20332;-52
2023/03/01 07:26:55;;;;;;;17.80;14.57;;;;;;;-0.41;91.10;99289.66;4157990;28;20205;-51
2023/03/01 07:28:59;;;;;;;17.47;14.93;;;;;;;-0.41;91.26;99295.03;4178589;28;20310;-52
2023/03/01 07:31:05;;;;;;;18.33;16.63;;;;;;;-0.38;90.63;99294.72;4175540;28;20308;-51
2023/03/01 07:33:07;;;;;;;18.20;16.43;;;;;;;-0.41;90.81;99284.31;4176218;28;20219;-50
2023/03/01 07:35:09;;;;;;;17.67;16.03;;;;;;;-0.34;90.59;99296.91;4156837;28;20229;-52
2023/03/01 07:37:11;;;;;;;18.73;15.13;;;;;;;-0.31;90.22;99291.22;4176845;28;20244;-50
2023/03/01 07:39:12;;;;;;;15.13;13.67;;;;;;;-0.29;90.26;99291.88;4174987;28;20613;-52
2023/03/01 07:41:14;;;;;;;17.00;15.37;;;;;;;-0.19;89.55;99289.06;4145912;28;20205;-52
2023/03/01 07:43:16;;;;;;;19.43;14.83;;;;;;;-0.07;89.13;99293.97;4159068;28;20693;-52
2023/03/01 07:45:17;;;;;;;14.97;13.47;;;;;;;0.09;88.51;99294.84;4160064;28;20204;-51
2023/03/01 07:47:19;;;;;;;15.17;13.67;;;;;;;0.16;87.70;99287.78;4161752;28;20714;-51
2023/03/01 07:49:21;;;;;;;15.10;13.73;;;;;;;0.13;87.87;99285.44;4174427;28;20299;-51
2023/03/01 07:51:24;;;;;;;15.90;14.27;;;;;;;0.44;87.52;99289.19;4160333;28;20216;-51
2023/03/01 07:53:25;;;;;;;18.33;14.07;;;;;;;0.62;85.87;99281.78;4176997;28;20310;-51
2023/03/01 07:55:27;;;;;;;16.80;15.30;;;;;;;0.71;85.93;99285.31;4158395;28;20283;-51
2023/03/01 07:57:29;;;;;;;15.43;14.10;;;;;;;0.58;85.34;99279.59;4160174;28;20770;-51
2023/03/01 07:59:31;;;;;;;15.83;14.40;;;;;;;0.85;85.04;99282.78;4159563;28;20223;-51
2023/03/01 08:01:32;;;;;;;17.13;14.67;;;;;;;1.29;83.90;99275.94;4157803;28;20215;-51
2023/03/01 08:03:35;;;;;;;19.97;15.10;;;;;;;1.77;82.79;99273.06;4158189;28;20209;-51
2023/03/01 08:05:37;;;;;;;16.53;14.93;;;;;;;1.90;80.75;99276.03;4175397;28;20307;-51
2023/03/01 08:07:39;;;;;;;15.90;14.47;;;;;;;1.76;80.27;99263.28;4159210;28;20773;-52
2023/03/01 08:09:40;;;;;;;15.83;14.27;;;;;;;1.79;78.89;99268.31;4147504;28;20683;-51
2023/03/01 08:11:42;;;;;;;15.17;13.67;;;;;;;2.03;79.38;99270.91;4160061;28;20668;-52
2023/03/01 08:13:47;;;;;;;14.60;13.38;;;;;;;2.20;78.75;99267.06;4177254;28;20212;-52
2023/03/01 08:15:52;;;;;;;18.40;13.13;;;;;;;2.30;76.83;99262.28;4176757;28;20203;-52
2023/03/01 08:17:54;;;;;;;15.80;14.20;;;;;;;2.32;77.42;99271.03;4161353;28;20296;-51
2023/03/01 08:19:56;;;;;;;13.45;12.13;;;;;;;1.98;77.37;99267.88;4160170;28;20213;-52
2023/03/01 08:21:58;;;;;;;15.20;13.93;;;;;;;2.18;78.25;99266.41;4144626;28;20268;-52
2023/03/01 08:23:59;;;;;;;15.43;14.03;;;;;;;2.16;76.21;99263.06;4175033;28;20215;-50
2023/03/01 08:26:27;;;;;;;14.95;13.52;;;;;;;3.01;74.75;99261.84;4159364;28;20306;-50
2023/03/01 08:28:29;;;;;;;13.82;12.43;;;;;;;2.73;74.85;99274.25;4156725;28;20315;-51
2023/03/01 08:30:31;;;;;;;16.38;14.90;;;;;;;2.89;74.46;99264.16;4158139;28;20213;-51
2023/03/01 08:32:38;;;;;;;14.38;13.05;;;;;;;3.20;73.30;99256.72;4158783;28;20649;-51
2023/03/01 08:34:40;;;;;;;15.18;13.73;;;;;;;3.31;71.81;99253.56;4155159;28;20652;-50
2023/03/01 08:36:45;;;;;;;14.65;13.38;;;;;;;3.66;71.67;99263.63;4158810;28;20594;-52
2023/03/01 08:38:47;;;;;;;14.82;13.35;;;;;;;3.59;71.30;99257.28;4159181;28;20264;-51
2023/03/01 08:40:48;;;;;;;12.88;11.68;;;;;;;3.93;70.79;99264.81;4155380;28;20756;-51
2023/03/01 08:42:50;;;;;;;17.75;13.32;;;;;;;4.28;70.12;99258.53;4172752;28;20541;-51
2023/03/01 08:44:51;;;;;;;10.40;9.35;;;;;;;5.01;68.04;99249.00;4141327;28;20216;-51
2023/03/01 08:46:55;;;;;;;10.77;9.70;;;;;;;4.99;67.33;99248.34;4173541;28;20212;-52
2023/03/01 08:48:57;;;;;;;12.68;11.50;;;;;;;4.83;67.57;99237.81;4174179;28;20226;-51
2023/03/01 08:51:09;;;;;;;14.27;12.05;;;;;;;4.64;65.84;99249.31;4174444;28;20204;-51
2023/03/01 08:53:11;;;;;;;12.68;11.50;;;;;;;5.18;67.42;99239.53;4157676;28;20304;-50
2023/03/01 08:55:14;;;;;;;15.45;11.60;;;;;;;4.73;65.11;99241.91;4172553;28;20224;-50
2023/03/01 08:57:16;;;;;;;17.30;11.95;;;;;;;4.45;66.65;99239.13;4158725;28;20212;-51
2023/03/01 08:59:19;;;;;;;15.25;10.57;;;;;;;4.69;66.69;99230.59;4160109;28;20303;-52
2023/03/01 09:01:20;;;;;;;15.57;13.98;;;;;;;4.36;67.17;99234.88;4154856;28;20219;-52
2023/03/01 09:03:24;;;;;;;13.73;12.27;;;;;;;4.43;66.31;99230.38;4159792;28;20694;-50
2023/03/01 09:05:25;;;;;;;11.93;10.48;;;;;;;4.68;66.83;99226.19;4154954;28;20204;-50
2023/03/01 09:07:28;;;;;;;13.75;12.35;;;;;;;4.13;67.49;99228.78;4173165;28;20214;-50
2023/03/01 09:09:29;;;;;;;12.90;11.40;;;;;;;4.38;67.81;99216.56;4175868;28;20212;-50
2023/03/01 09:11:34;;;;;;;13.52;12.05;;;;;;;4.22;68.16;99215.97;4154237;28;20228;-51
2023/03/01 09:13:36;;;;;;;15.27;11.65;;;;;;;3.97;68.33;99223.63;4166435;28;20303;-51
2023/03/01 09:15:38;;;;;;;13.98;12.48;;;;;;;4.43;66.88;99216.81;4165354;28;20263;-51
2023/03/01 09:17:40;;;;;;;14.95;12.07;;;;;;;4.75;65.36;99218.97;4172932;28;20767;-51
2023/03/01 09:19:41;;;;;;;11.77;9.93;;;;;;;4.53;66.04;99220.03;4155866;28;20247;-50
2023/03/01 09:21:52;;;;;;;12.30;11.07;;;;;;;4.40;68.09;99214.47;4150330;28;20212;-52
2023/03/01 09:23:56;;;;;;;12.95;11.30;;;;;;;5.26;65.05;99214.94;4154944;28;20290;-51
2023/03/01 09:25:58;;;;;;;13.15;11.38;;;;;;;5.59;63.85;99213.25;4170554;28;20671;-50
2023/03/01 09:28:00;;;;;;;13.50;12.13;;;;;;;5.81;64.33;99215.69;4154313;28;20224;-51
2023/03/01 09:30:02;;;;;;;13.82;12.50;;;;;;;5.31;63.02;99210.63;4151559;28;20320;-51